Eviapetrol I — SY5401 — position and weather

sailwx.info

Track history (hours):
 
Tides and Currents Weather Stations Pressure Air Temp Water Temp Dewpoint Dewpoint Depression Visibility Wind Speed Wind Dir Waves Ship Positions

Eviapetrol I

Last reported at 2018-Jul-21 15:30 UTC. Time now 2018-Jul-21 15:41 UTC.
Position N 38°02' E 022°48'.

Length 75 m; draft 4.6 m.

Type: Ship. MMSI: 240285000.

Date/timePositionNaut miles runAvg speedWind from/ knotsBaromVisibWave heightAir tempDewpointWater temp
2018-Jul-21 15:30N 38°02' E 022°48'4 8.1
2018-Jul-21 14:58N 38°04' E 022°44'4 8.2
2018-Jul-21 14:30N 38°07' E 022°40'8 0.2
2018-Jul-19 12:08N 38°11' E 022°32'4 9.5
2018-Jul-19 11:45N 38°09' E 022°36'310.0
2018-Jul-19 11:30N 38°07' E 022°38'510.1
2018-Jul-19 11:00N 38°05' E 022°43'5 9.9
2018-Jul-19 10:30N 38°02' E 022°49'4 7.8
2018-Jul-19 10:00N 37°60' E 022°53'4 7.2
2018-Jul-19 09:30N 37°58' E 022°57'3 5.5
2018-Jul-19 08:55N 37°56' E 022°60'2 4.0
2018-Jul-19 08:30N 37°55' E 023°01'3 5.5
2018-Jul-19 08:00N 37°54' E 023°05'5 9.5
2018-Jul-19 07:30N 37°54' E 023°11'5 9.9
2018-Jul-19 07:00N 37°55' E 023°17'5 9.8
2018-Jul-19 06:30N 37°57' E 023°23'4 7.1
2018-Jul-19 06:00N 37°60' E 023°25'510.0
2018-Jul-19 05:30N 38°01' E 023°31'1 1.4
2018-Jul-19 05:01N 38°01' E 023°32'2 4.4
2018-Jul-19 04:30N 38°01' E 023°35'0 0.8
2018-Jul-19 03:59N 38°01' E 023°36'0 0.0
2018-Jul-19 03:29N 38°01' E 023°36'0 0.0
2018-Jul-19 02:59N 38°01' E 023°36'0 0.0
2018-Jul-19 02:23N 38°01' E 023°36'0 0.0
2018-Jul-19 01:59N 38°01' E 023°36'0 0.0
2018-Jul-19 01:30N 38°01' E 023°36'0 0.0
2018-Jul-19 01:00N 38°01' E 023°36'0 0.0
2018-Jul-19 00:28N 38°01' E 023°36'0 0.0
2018-Jul-18 23:53N 38°01' E 023°36'0 0.0
2018-Jul-18 23:29N 38°01' E 023°36'0 0.0
2018-Jul-18 22:59N 38°01' E 023°36'0 0.0
2018-Jul-18 22:26N 38°01' E 023°36'0 0.0
2018-Jul-18 22:00N 38°01' E 023°36'0 0.0
2018-Jul-18 21:28N 38°01' E 023°36'0 0.0
2018-Jul-18 20:58N 38°01' E 023°36'0 0.0
2018-Jul-18 20:28N 38°01' E 023°36'0 0.0
2018-Jul-18 19:58N 38°01' E 023°36'0 0.0
2018-Jul-18 19:28N 38°01' E 023°36'0 0.0
2018-Jul-18 18:58N 38°01' E 023°36'0 0.0
2018-Jul-18 18:29N 38°01' E 023°36'0 0.0
2018-Jul-18 17:59N 38°01' E 023°36'0 0.0
2018-Jul-18 17:30N 38°01' E 023°36'1 1.3
2018-Jul-18 17:00N 38°01' E 023°35'2 3.8
2018-Jul-18 16:28N 38°01' E 023°32'0 0.0
2018-Jul-18 15:55N 38°01' E 023°32'0 0.0
2018-Jul-18 15:28N 38°01' E 023°32'0 0.0
2018-Jul-18 14:42N 38°01' E 023°32'0 0.0
2018-Jul-18 14:30N 38°01' E 023°32'0 0.0
2018-Jul-18 13:30N 38°01' E 023°32'0 0.0
2018-Jul-18 13:00N 38°01' E 023°32'0 0.0
2018-Jul-18 12:30N 38°01' E 023°32'0 0.0
2018-Jul-18 12:00N 38°01' E 023°32'0 0.1
2018-Jul-18 11:27N 38°01' E 023°32'3 2.7
2018-Jul-18 10:29N 38°02' E 023°36'0 0.1
2018-Jul-18 09:55N 38°02' E 023°36'0 0.0
2018-Jul-18 09:28N 38°02' E 023°36'0 0.0
2018-Jul-18 08:25N 38°02' E 023°36'0 0.0
2018-Jul-18 07:58N 38°02' E 023°36'0 0.0
2018-Jul-18 07:25N 38°02' E 023°36'0 0.0
2018-Jul-18 06:49N 38°02' E 023°36'0 0.0
2018-Jul-18 06:19N 38°02' E 023°36'0 0.4
2018-Jul-18 06:00N 38°02' E 023°36'3 5.0
2018-Jul-18 05:30N 38°01' E 023°32'3 5.1
2018-Jul-18 05:00N 37°58' E 023°33'4 7.6
2018-Jul-18 04:30N 37°56' E 023°36'4 8.7
2018-Jul-18 04:00N 37°52' E 023°39'4 8.9
2018-Jul-18 03:30N 37°48' E 023°41'4 8.7
2018-Jul-18 03:00N 37°44' E 023°43'4 8.7
2018-Jul-18 02:30N 37°40' E 023°46'  
2018-Jul-12 03:21N 37°36' E 023°49'3 9.9
2018-Jul-12 03:00N 37°38' E 023°46'5 9.8
2018-Jul-12 02:30N 37°41' E 023°41'510.0
2018-Jul-12 02:00N 37°46' E 023°38'5 9.9
2018-Jul-12 01:30N 37°49' E 023°34'5 9.8
2018-Jul-12 01:00N 37°51' E 023°28'5 9.9
2018-Jul-12 00:30N 37°54' E 023°23'5 9.1
2018-Jul-12 00:00N 37°58' E 023°25'4 7.0
2018-Jul-11 23:30N 38°01' E 023°28'5 9.7
2018-Jul-11 23:00N 38°01' E 023°34'1 2.6
2018-Jul-11 22:29N 38°02' E 023°36'0 0.0
2018-Jul-11 21:59N 38°02' E 023°36'0 0.0
2018-Jul-11 21:29N 38°02' E 023°36'0 0.0
2018-Jul-11 20:59N 38°02' E 023°36'0 0.0
2018-Jul-11 20:29N 38°02' E 023°36'0 0.0
2018-Jul-11 19:59N 38°02' E 023°36'0 0.0
2018-Jul-11 19:29N 38°02' E 023°36'0 0.0
2018-Jul-11 18:59N 38°02' E 023°36'0 0.0
2018-Jul-11 18:29N 38°02' E 023°36'0 0.0
2018-Jul-11 17:59N 38°02' E 023°36'0 0.0
2018-Jul-11 17:29N 38°02' E 023°36'0 0.0
2018-Jul-11 16:59N 38°02' E 023°36'0 0.0
2018-Jul-11 16:29N 38°02' E 023°36'0 0.0
2018-Jul-11 15:59N 38°02' E 023°36'  
Track history (hours):
 
Tides and Currents Weather Stations Pressure Air Temp Water Temp Dewpoint Dewpoint Depression Visibility Wind Speed Wind Dir Waves Ship Positions

Eviapetrol I

Last reported at 2018-Jul-21 15:30 UTC. Time now 2018-Jul-21 15:41 UTC.
Position N 38°02' E 022°48'.

Length 75 m; draft 4.6 m.

Type: Ship. MMSI: 240285000.

Date/timePositionNaut miles runAvg speedWind from/ knotsBaromVisibWave heightAir tempDewpointWater temp
2018-Jul-21 15:30N 38°02' E 022°48'4 8.1
2018-Jul-21 14:58N 38°04' E 022°44'4 8.2
2018-Jul-21 14:30N 38°07' E 022°40'8 0.2
2018-Jul-19 12:08N 38°11' E 022°32'4 9.5
2018-Jul-19 11:45N 38°09' E 022°36'310.0
2018-Jul-19 11:30N 38°07' E 022°38'510.1
2018-Jul-19 11:00N 38°05' E 022°43'5 9.9
2018-Jul-19 10:30N 38°02' E 022°49'4 7.8
2018-Jul-19 10:00N 37°60' E 022°53'4 7.2
2018-Jul-19 09:30N 37°58' E 022°57'3 5.5
2018-Jul-19 08:55N 37°56' E 022°60'2 4.0
2018-Jul-19 08:30N 37°55' E 023°01'3 5.5
2018-Jul-19 08:00N 37°54' E 023°05'5 9.5
2018-Jul-19 07:30N 37°54' E 023°11'5 9.9
2018-Jul-19 07:00N 37°55' E 023°17'5 9.8
2018-Jul-19 06:30N 37°57' E 023°23'4 7.1
2018-Jul-19 06:00N 37°60' E 023°25'510.0
2018-Jul-19 05:30N 38°01' E 023°31'1 1.4
2018-Jul-19 05:01N 38°01' E 023°32'2 4.4
2018-Jul-19 04:30N 38°01' E 023°35'0 0.8
2018-Jul-19 03:59N 38°01' E 023°36'0 0.0
2018-Jul-19 03:29N 38°01' E 023°36'0 0.0
2018-Jul-19 02:59N 38°01' E 023°36'0 0.0
2018-Jul-19 02:23N 38°01' E 023°36'0 0.0
2018-Jul-19 01:59N 38°01' E 023°36'0 0.0
2018-Jul-19 01:30N 38°01' E 023°36'0 0.0
2018-Jul-19 01:00N 38°01' E 023°36'0 0.0
2018-Jul-19 00:28N 38°01' E 023°36'0 0.0
2018-Jul-18 23:53N 38°01' E 023°36'0 0.0
2018-Jul-18 23:29N 38°01' E 023°36'0 0.0
2018-Jul-18 22:59N 38°01' E 023°36'0 0.0
2018-Jul-18 22:26N 38°01' E 023°36'0 0.0
2018-Jul-18 22:00N 38°01' E 023°36'0 0.0
2018-Jul-18 21:28N 38°01' E 023°36'0 0.0
2018-Jul-18 20:58N 38°01' E 023°36'0 0.0
2018-Jul-18 20:28N 38°01' E 023°36'0 0.0
2018-Jul-18 19:58N 38°01' E 023°36'0 0.0
2018-Jul-18 19:28N 38°01' E 023°36'0 0.0
2018-Jul-18 18:58N 38°01' E 023°36'0 0.0
2018-Jul-18 18:29N 38°01' E 023°36'0 0.0
2018-Jul-18 17:59N 38°01' E 023°36'0 0.0
2018-Jul-18 17:30N 38°01' E 023°36'1 1.3
2018-Jul-18 17:00N 38°01' E 023°35'2 3.8
2018-Jul-18 16:28N 38°01' E 023°32'0 0.0
2018-Jul-18 15:55N 38°01' E 023°32'0 0.0
2018-Jul-18 15:28N 38°01' E 023°32'0 0.0
2018-Jul-18 14:42N 38°01' E 023°32'0 0.0
2018-Jul-18 14:30N 38°01' E 023°32'0 0.0
2018-Jul-18 13:30N 38°01' E 023°32'0 0.0
2018-Jul-18 13:00N 38°01' E 023°32'0 0.0
2018-Jul-18 12:30N 38°01' E 023°32'0 0.0
2018-Jul-18 12:00N 38°01' E 023°32'0 0.1
2018-Jul-18 11:27N 38°01' E 023°32'3 2.7
2018-Jul-18 10:29N 38°02' E 023°36'0 0.1
2018-Jul-18 09:55N 38°02' E 023°36'0 0.0
2018-Jul-18 09:28N 38°02' E 023°36'0 0.0
2018-Jul-18 08:25N 38°02' E 023°36'0 0.0
2018-Jul-18 07:58N 38°02' E 023°36'0 0.0
2018-Jul-18 07:25N 38°02' E 023°36'0 0.0
2018-Jul-18 06:49N 38°02' E 023°36'0 0.0
2018-Jul-18 06:19N 38°02' E 023°36'0 0.4
2018-Jul-18 06:00N 38°02' E 023°36'3 5.0
2018-Jul-18 05:30N 38°01' E 023°32'3 5.1
2018-Jul-18 05:00N 37°58' E 023°33'4 7.6
2018-Jul-18 04:30N 37°56' E 023°36'4 8.7
2018-Jul-18 04:00N 37°52' E 023°39'4 8.9
2018-Jul-18 03:30N 37°48' E 023°41'4 8.7
2018-Jul-18 03:00N 37°44' E 023°43'4 8.7
2018-Jul-18 02:30N 37°40' E 023°46'  
2018-Jul-12 03:21N 37°36' E 023°49'3 9.9
2018-Jul-12 03:00N 37°38' E 023°46'5 9.8
2018-Jul-12 02:30N 37°41' E 023°41'510.0
2018-Jul-12 02:00N 37°46' E 023°38'5 9.9
2018-Jul-12 01:30N 37°49' E 023°34'5 9.8
2018-Jul-12 01:00N 37°51' E 023°28'5 9.9
2018-Jul-12 00:30N 37°54' E 023°23'5 9.1
2018-Jul-12 00:00N 37°58' E 023°25'4 7.0
2018-Jul-11 23:30N 38°01' E 023°28'5 9.7
2018-Jul-11 23:00N 38°01' E 023°34'1 2.6
2018-Jul-11 22:29N 38°02' E 023°36'0 0.0
2018-Jul-11 21:59N 38°02' E 023°36'0 0.0
2018-Jul-11 21:29N 38°02' E 023°36'0 0.0
2018-Jul-11 20:59N 38°02' E 023°36'0 0.0
2018-Jul-11 20:29N 38°02' E 023°36'0 0.0
2018-Jul-11 19:59N 38°02' E 023°36'0 0.0
2018-Jul-11 19:29N 38°02' E 023°36'0 0.0
2018-Jul-11 18:59N 38°02' E 023°36'0 0.0
2018-Jul-11 18:29N 38°02' E 023°36'0 0.0
2018-Jul-11 17:59N 38°02' E 023°36'0 0.0
2018-Jul-11 17:29N 38°02' E 023°36'0 0.0
2018-Jul-11 16:59N 38°02' E 023°36'0 0.0
2018-Jul-11 16:29N 38°02' E 023°36'0 0.0
2018-Jul-11 15:59N 38°02' E 023°36'  

Dump ship's entire track history